Time;durP1;ratioP1;P1;durP2;ratioP2;P2;SDS_P1;SDS_P2;PMS_P1;PMS_P2;Temp;Humidity;BMP_temperature;BMP_pressure;BME280_temperature;BME280_humidity;BME280_pressure;Samples;Min_cycle;Max_cycle;Signal;HPM_P1;HPM_P2
2023/07/07 00:02:29;;;;;;;;;;;;;;;24.33;48.62;101436.37;2259152;78;52567;-73
2023/07/07 00:05:30;;;;;;;;;;;;;;;24.31;48.54;101435.20;2245921;78;51526;-73
2023/07/07 00:08:33;;;;;;;;;;;;;;;24.32;48.51;101437.38;2223105;79;51415;-73
2023/07/07 00:11:35;;;;;;;;;;;;;;;24.30;48.64;101432.20;2199126;79;52537;-74
2023/07/07 00:14:36;;;;;;;;;;;;;;;24.31;48.61;101437.91;2243579;79;51594;-74
2023/07/07 00:17:41;;;;;;;;;;;;;;;24.31;48.78;101431.67;2243648;78;51495;-73
2023/07/07 00:20:41;;;;;;;;;;;;;;;24.29;49.05;101437.27;2237774;79;22440;-74
2023/07/07 00:23:43;;;;;;;;;;;;;;;24.29;48.81;101426.98;2243582;79;50343;-74
2023/07/07 00:26:45;;;;;;;;;;;;;;;24.31;48.88;101430.32;2242905;78;50078;-74
2023/07/07 00:29:46;;;;;;;;;;;;;;;24.28;49.10;101434.27;2244914;78;51505;-74
2023/07/07 00:32:48;;;;;;;;;;;;;;;24.29;49.08;101429.16;2222728;79;50718;-74
2023/07/07 00:35:50;;;;;;;;;;;;;;;24.28;49.29;101432.08;2204952;79;51400;-73
2023/07/07 00:38:52;;;;;;;;;;;;;;;24.29;49.23;101431.03;2245371;78;50333;-73
2023/07/07 00:41:53;;;;;;;;;;;;;;;24.29;49.33;101436.45;2243493;79;51514;-73
2023/07/07 00:45:15;;;;;;;;;;;;;;;24.30;49.22;101435.39;2222857;78;52275;-74
2023/07/07 00:48:21;;;;;;;;;;;;;;;24.29;49.16;101437.80;2249359;78;51679;-73
2023/07/07 00:51:24;;;;;;;;;;;;;;;24.29;49.19;101439.15;2279096;78;51375;-73
2023/07/07 00:54:27;;;;;;;;;;;;;;;24.29;49.34;101449.44;2278469;78;50262;-73
2023/07/07 00:57:28;;;;;;;;;;;;;;;24.30;49.85;101442.16;2278185;76;51435;-73
2023/07/07 01:00:30;;;;;;;;;;;;;;;24.30;50.21;101449.78;2259398;78;52259;-72
2023/07/07 01:03:33;;;;;;;;;;;;;;;24.30;50.21;101452.48;2280861;78;51500;-72
2023/07/07 01:06:36;;;;;;;;;;;;;;;24.30;50.39;101461.95;2279506;78;51438;-73
2023/07/07 01:09:38;;;;;;;;;;;;;;;24.29;50.12;101453.50;2278719;78;50355;-73
2023/07/07 01:12:39;;;;;;;;;;;;;;;24.27;49.67;101455.56;2259306;78;52494;-73
2023/07/07 01:15:43;;;;;;;;;;;;;;;24.28;49.62;101452.37;2275931;78;51448;-72
2023/07/07 01:18:52;;;;;;;;;;;;;;;24.25;49.13;101454.95;2265291;78;50821;-73
2023/07/07 01:22:05;;;;;;;;;;;;;;;24.21;48.92;101453.67;2243499;79;51449;-73
2023/07/07 01:25:08;;;;;;;;;;;;;;;24.21;48.58;101455.03;2222012;79;50961;-73
2023/07/07 01:28:31;;;;;;;;;;;;;;;24.22;48.84;101456.69;2260663;78;50335;-73
2023/07/07 01:31:34;;;;;;;;;;;;;;;24.21;48.73;101460.96;2280769;78;50702;-73
2023/07/07 01:34:35;;;;;;;;;;;;;;;24.18;48.58;101454.61;2280858;76;51551;-73
2023/07/07 01:37:37;;;;;;;;;;;;;;;24.18;48.53;101453.26;2247182;78;50066;-73
2023/07/07 01:40:40;;;;;;;;;;;;;;;24.19;48.77;101462.50;2222848;78;51451;-73
2023/07/07 01:43:43;;;;;;;;;;;;;;;24.17;48.59;101453.75;2244850;78;50438;-73
2023/07/07 01:46:59;;;;;;;;;;;;;;;24.17;48.41;101458.33;2249794;78;50425;-73
2023/07/07 01:50:11;;;;;;;;;;;;;;;24.15;48.25;101458.55;2256227;78;51647;-74
2023/07/07 01:53:14;;;;;;;;;;;;;;;24.15;48.30;101460.39;2222547;79;51732;-73
2023/07/07 01:56:17;;;;;;;;;;;;;;;24.13;48.26;101451.98;2278225;78;51552;-74
2023/07/07 01:59:19;;;;;;;;;;;;;;;24.12;48.37;101450.81;2278726;78;51580;-74
2023/07/07 02:02:21;;;;;;;;;;;;;;;24.11;48.09;101450.51;2259510;78;52533;-74
2023/07/07 02:05:22;;;;;;;;;;;;;;;24.10;48.05;101451.55;2280963;78;50274;-73
2023/07/07 02:08:24;;;;;;;;;;;;;;;24.10;48.06;101459.67;2257150;78;50346;-74
2023/07/07 02:11:25;;;;;;;;;;;;;;;24.07;47.89;101459.55;2259528;78;50295;-74
2023/07/07 02:14:27;;;;;;;;;;;;;;;24.09;47.84;101454.75;2259605;78;51172;-75
2023/07/07 02:17:29;;;;;;;;;;;;;;;24.08;47.88;101468.48;2266172;78;50268;-69
2023/07/07 02:20:31;;;;;;;;;;;;;;;24.08;47.74;101459.86;2279566;77;50381;-74
2023/07/07 02:23:32;;;;;;;;;;;;;;;24.08;47.73;101464.44;2279118;78;51558;-74
2023/07/07 02:26:34;;;;;;;;;;;;;;;24.06;47.62;101468.67;2257200;78;52349;-74
2023/07/07 02:29:36;;;;;;;;;;;;;;;24.07;47.66;101465.45;2258591;78;51619;-74
2023/07/07 02:32:38;;;;;;;;;;;;;;;24.05;47.64;101465.67;2280834;78;51566;-74
2023/07/07 02:35:40;;;;;;;;;;;;;;;24.05;47.65;101464.31;2259728;77;51509;-74
2023/07/07 02:38:41;;;;;;;;;;;;;;;24.05;47.59;101470.25;2257080;78;50771;-74
2023/07/07 02:41:43;;;;;;;;;;;;;;;24.04;47.62;101470.73;2259453;78;50676;-75
2023/07/07 02:44:44;;;;;;;;;;;;;;;24.03;47.40;101473.14;2281067;78;51588;-74
2023/07/07 02:47:46;;;;;;;;;;;;;;;24.03;47.47;101467.73;2243228;78;51522;-75
2023/07/07 02:51:01;;;;;;;;;;;;;;;24.02;47.27;101468.78;2279307;78;51450;-73
2023/07/07 02:54:02;;;;;;;;;;;;;;;24.03;47.40;101470.95;2257513;78;51486;-75
2023/07/07 02:57:04;;;;;;;;;;;;;;;24.01;47.42;101475.20;2276483;78;51542;-75
2023/07/07 03:00:09;;;;;;;;;;;;;;;24.00;47.38;101472.71;2281013;78;51533;-76
2023/07/07 03:03:10;;;;;;;;;;;;;;;23.99;47.26;101471.86;2260159;78;22376;-75
2023/07/07 03:06:13;;;;;;;;;;;;;;;23.99;47.19;101465.09;2280766;78;50426;-75
2023/07/07 03:09:14;;;;;;;;;;;;;;;23.98;47.40;101472.90;2248063;78;51510;-74
2023/07/07 03:12:16;;;;;;;;;;;;;;;23.98;47.26;101472.07;2243601;79;50195;-74
2023/07/07 03:15:20;;;;;;;;;;;;;;;23.98;47.19;101474.25;2205171;78;51140;-74
2023/07/07 03:18:21;;;;;;;;;;;;;;;23.96;47.03;101469.55;2245104;78;22528;-75
2023/07/07 03:21:23;;;;;;;;;;;;;;;23.97;47.08;101472.59;2234049;79;51498;-75
2023/07/07 03:24:24;;;;;;;;;;;;;;;23.95;47.12;101473.30;2243582;79;51479;-75
2023/07/07 03:27:26;;;;;;;;;;;;;;;23.95;47.00;101477.88;2232279;78;50110;-74
2023/07/07 03:30:27;;;;;;;;;;;;;;;23.94;47.09;101481.08;2259216;78;50663;-74
2023/07/07 03:33:29;;;;;;;;;;;;;;;23.93;46.93;101476.72;2280042;76;50271;-74
2023/07/07 03:36:31;;;;;;;;;;;;;;;23.94;46.94;101479.72;2258607;78;50654;-75
2023/07/07 03:39:33;;;;;;;;;;;;;;;23.92;46.84;101479.11;2234906;78;50932;-75
2023/07/07 03:42:34;;;;;;;;;;;;;;;23.92;46.84;101487.22;2259685;78;52437;-73
2023/07/07 03:45:36;;;;;;;;;;;;;;;23.92;46.67;101484.52;2253650;76;49941;-74
2023/07/07 03:48:37;;;;;;;;;;;;;;;23.92;46.77;101480.47;2259355;78;51522;-75
2023/07/07 03:51:39;;;;;;;;;;;;;;;23.91;46.53;101486.36;2257173;78;51151;-74
2023/07/07 03:54:41;;;;;;;;;;;;;;;23.91;46.58;101494.47;2257411;78;50024;-74
2023/07/07 03:57:42;;;;;;;;;;;;;;;23.90;46.56;101485.23;2225219;79;51508;-75
2023/07/07 04:00:46;;;;;;;;;;;;;;;23.90;46.59;101490.11;2222848;79;49957;-75
2023/07/07 04:03:47;;;;;;;;;;;;;;;23.90;46.47;101489.28;2223046;79;22420;-75
2023/07/07 04:06:49;;;;;;;;;;;;;;;23.90;46.50;101498.22;2224302;79;51513;-75
2023/07/07 04:09:52;;;;;;;;;;;;;;;23.89;46.41;101497.05;2243667;78;51420;-74
2023/07/07 04:12:54;;;;;;;;;;;;;;;23.89;46.54;101503.81;2222814;79;51557;-74
2023/07/07 04:16:03;;;;;;;;;;;;;;;23.88;46.58;101507.56;2210808;78;52121;-76
2023/07/07 04:19:04;;;;;;;;;;;;;;;23.87;46.49;101501.84;2257796;78;50802;-74
2023/07/07 04:22:06;;;;;;;;;;;;;;;23.89;46.54;101517.33;2243720;79;51416;-75
2023/07/07 04:25:12;;;;;;;;;;;;;;;23.87;46.36;101508.61;2243536;79;52208;-74
2023/07/07 04:28:14;;;;;;;;;;;;;;;23.87;46.30;101518.89;2243276;79;50423;-74
2023/07/07 04:31:15;;;;;;;;;;;;;;;23.87;46.20;101514.84;2243644;79;50414;-75
2023/07/07 04:34:17;;;;;;;;;;;;;;;23.86;46.21;101517.73;2222411;79;50199;-75
2023/07/07 04:37:20;;;;;;;;;;;;;;;23.84;46.12;101517.94;2243325;79;50384;-75
2023/07/07 04:40:21;;;;;;;;;;;;;;;23.84;45.96;101514.38;2222608;79;52352;-74
2023/07/07 04:43:23;;;;;;;;;;;;;;;23.86;46.13;101520.43;2243581;79;50775;-75
2023/07/07 04:46:25;;;;;;;;;;;;;;;23.84;46.03;101528.75;2249576;78;50278;-75
2023/07/07 04:49:27;;;;;;;;;;;;;;;23.84;46.39;101531.95;2266634;78;51344;-74
2023/07/07 04:52:29;;;;;;;;;;;;;;;23.86;47.08;101532.59;2273667;76;51361;-75
2023/07/07 04:55:30;;;;;;;;;;;;;;;23.87;46.16;101535.11;2255496;78;50251;-76
2023/07/07 04:58:32;;;;;;;;;;;;;;;23.94;45.40;101533.78;2230737;76;50407;-77
2023/07/07 05:01:34;;;;;;;;;;;;;;;23.98;44.70;101530.19;2252067;76;51522;-76
2023/07/07 05:04:35;;;;;;;;;;;;;;;24.03;44.10;101538.55;2282421;76;50217;-76
2023/07/07 05:07:37;;;;;;;;;;;;;;;24.08;43.58;101533.38;2247071;78;50373;-76
2023/07/07 05:10:39;;;;;;;;;;;;;;;24.16;43.07;101531.03;2280570;78;50344;-76
2023/07/07 05:13:40;;;;;;;;;;;;;;;24.22;42.68;101535.64;2259613;78;50260;-75
2023/07/07 05:16:42;;;;;;;;;;;;;;;24.26;42.37;101538.27;2247340;78;51157;-76
2023/07/07 05:19:44;;;;;;;;;;;;;;;24.31;41.98;101542.56;2250156;78;51539;-76
2023/07/07 05:22:45;;;;;;;;;;;;;;;24.37;41.64;101545.81;2279787;78;50261;-75
2023/07/07 05:25:47;;;;;;;;;;;;;;;24.41;41.46;101539.50;2258302;78;50320;-76
2023/07/07 05:28:51;;;;;;;;;;;;;;;24.48;41.24;101545.79;2226765;79;50083;-76
2023/07/07 05:31:52;;;;;;;;;;;;;;;24.72;41.49;101544.45;2245295;79;22321;-76
2023/07/07 05:34:53;;;;;;;;;;;;;;;24.83;40.37;101543.86;2244408;79;51495;-76
2023/07/07 05:37:55;;;;;;;;;;;;;;;24.89;39.23;101545.78;2245353;78;51583;-76
2023/07/07 05:40:57;;;;;;;;;;;;;;;24.96;38.94;101548.48;2262273;78;51674;-77
2023/07/07 05:43:58;;;;;;;;;;;;;;;25.01;39.77;101554.65;2235971;78;52707;-76
2023/07/07 05:47:00;;;;;;;;;;;;;;;25.03;38.32;101556.11;2248899;78;50639;-76
2023/07/07 05:50:01;;;;;;;;;;;;;;;25.10;39.45;101566.45;2266517;78;51390;-76
2023/07/07 05:53:03;;;;;;;;;;;;;;;25.16;39.46;101562.12;2204220;79;50824;-76
2023/07/07 05:56:09;;;;;;;;;;;;;;;25.16;39.43;101566.18;2233305;78;50191;-75
2023/07/07 05:59:09;;;;;;;;;;;;;;;25.11;38.36;101570.81;2274582;78;23063;-76
2023/07/07 06:02:11;;;;;;;;;;;;;;;24.96;38.76;101570.14;2250724;78;51555;-76
2023/07/07 06:05:12;;;;;;;;;;;;;;;24.91;39.26;101570.75;2225432;79;52433;-76
2023/07/07 06:08:14;;;;;;;;;;;;;;;24.95;39.67;101576.61;2228931;79;50596;-76
2023/07/07 06:11:16;;;;;;;;;;;;;;;25.02;39.70;101577.97;2270455;78;50608;-77
2023/07/07 06:14:17;;;;;;;;;;;;;;;25.04;40.00;101579.44;2232767;78;50662;-76
2023/07/07 06:17:19;;;;;;;;;;;;;;;25.06;39.78;101581.95;2235075;78;52464;-77
2023/07/07 06:20:20;;;;;;;;;;;;;;;25.15;39.83;101577.51;2263870;78;51534;-78
2023/07/07 06:23:22;;;;;;;;;;;;;;;25.21;39.80;101586.71;2276776;78;50224;-77
2023/07/07 06:26:24;;;;;;;;;;;;;;;25.21;39.62;101581.30;2249115;78;50266;-77
2023/07/07 06:29:25;;;;;;;;;;;;;;;25.21;39.69;101585.36;2222961;79;51183;-77
2023/07/07 06:32:28;;;;;;;;;;;;;;;25.25;39.53;101588.48;2245211;78;51522;-78
2023/07/07 06:35:29;;;;;;;;;;;;;;;25.28;39.63;101589.42;2280907;78;51465;-76
2023/07/07 06:38:31;;;;;;;;;;;;;;;25.29;39.59;101593.30;2246866;78;50211;-77
2023/07/07 06:41:33;;;;;;;;;;;;;;;25.34;39.44;101586.73;2219687;78;52540;-77
2023/07/07 06:44:37;;;;;;;;;;;;;;;25.37;39.43;101589.03;2243348;78;51489;-77
2023/07/07 06:47:37;;;;;;;;;;;;;;;25.38;39.49;101590.72;2243152;78;22310;-77
2023/07/07 06:50:41;;;;;;;;;;;;;;;25.42;39.36;101591.12;2280460;78;50262;-76
2023/07/07 06:53:42;;;;;;;;;;;;;;;25.47;39.29;101591.88;2245444;76;22537;-76
2023/07/07 06:56:44;;;;;;;;;;;;;;;25.44;39.17;101595.00;2262647;78;50691;-77
2023/07/07 06:59:46;;;;;;;;;;;;;;;25.46;39.13;101593.75;2277784;76;51429;-76
2023/07/07 07:02:47;;;;;;;;;;;;;;;25.51;38.96;101593.11;2263127;76;51627;-76
2023/07/07 07:05:49;;;;;;;;;;;;;;;25.51;38.74;101604.81;2280390;76;50150;-75
2023/07/07 07:08:51;;;;;;;;;;;;;;;25.55;38.60;101603.86;2303725;76;50321;-75
2023/07/07 07:11:52;;;;;;;;;;;;;;;25.54;38.36;101599.50;2282055;78;50677;-77
2023/07/07 07:14:54;;;;;;;;;;;;;;;25.53;38.04;101601.88;2241235;78;50300;-77
2023/07/07 07:17:55;;;;;;;;;;;;;;;25.51;37.75;101594.47;2212034;78;51257;-75
2023/07/07 07:20:57;;;;;;;;;;;;;;;25.51;37.47;101594.47;2281423;78;50623;-75
2023/07/07 07:23:59;;;;;;;;;;;;;;;25.50;37.30;101595.52;2281118;78;51361;-76
2023/07/07 07:27:01;;;;;;;;;;;;;;;25.48;37.34;101598.95;2265096;76;50304;-76
2023/07/07 07:30:03;;;;;;;;;;;;;;;25.47;37.26;101598.64;2237455;76;51198;-75
2023/07/07 07:33:06;;;;;;;;;;;;;;;25.48;37.04;101590.81;2235061;79;50858;-75
2023/07/07 07:36:07;;;;;;;;;;;;;;;25.47;37.04;101591.88;2245895;78;51552;-76
2023/07/07 07:39:09;;;;;;;;;;;;;;;25.46;36.82;101596.46;2243752;78;50957;-75
2023/07/07 07:42:11;;;;;;;;;;;;;;;25.47;36.74;101594.58;2222684;79;51172;-75
2023/07/07 07:45:14;;;;;;;;;;;;;;;25.46;36.67;101595.60;2225239;78;50305;-75
2023/07/07 07:48:15;;;;;;;;;;;;;;;25.44;36.71;101595.00;2262229;78;50331;-75
2023/07/07 07:51:17;;;;;;;;;;;;;;;25.42;36.68;101594.66;2279051;78;50269;-75
2023/07/07 07:54:20;;;;;;;;;;;;;;;25.41;36.57;101587.59;2257451;78;51145;-76
2023/07/07 07:57:21;;;;;;;;;;;;;;;25.40;36.59;101595.91;2229008;79;51667;-75
2023/07/07 08:00:23;;;;;;;;;;;;;;;25.39;36.56;101597.80;2243604;79;51499;-75
2023/07/07 08:03:25;;;;;;;;;;;;;;;25.40;36.51;101603.52;2255708;78;51402;-76
2023/07/07 08:06:26;;;;;;;;;;;;;;;25.38;36.55;101601.55;2222436;79;51166;-77
2023/07/07 08:09:28;;;;;;;;;;;;;;;25.39;36.55;101595.61;2243813;79;50621;-77
2023/07/07 08:12:29;;;;;;;;;;;;;;;25.38;36.44;101604.76;2222870;79;52445;-78
2023/07/07 08:15:31;;;;;;;;;;;;;;;25.39;36.47;101601.03;2247947;78;50266;-78
2023/07/07 08:18:33;;;;;;;;;;;;;;;25.35;36.52;101601.11;2271945;78;51101;-77
2023/07/07 08:21:34;;;;;;;;;;;;;;;25.33;36.57;101604.05;2280994;76;49995;-77
2023/07/07 08:24:37;;;;;;;;;;;;;;;25.32;36.72;101606.95;2280912;78;50222;-76
2023/07/07 08:27:39;;;;;;;;;;;;;;;25.30;36.61;101601.72;2279672;78;51528;-76
2023/07/07 08:30:41;;;;;;;;;;;;;;;25.28;36.56;101613.80;2228682;79;51463;-76
2023/07/07 08:33:44;;;;;;;;;;;;;;;25.28;36.44;101602.47;2222557;79;50360;-76
2023/07/07 08:36:45;;;;;;;;;;;;;;;25.27;36.31;101610.79;2244228;78;22419;-76
2023/07/07 08:39:47;;;;;;;;;;;;;;;25.25;36.21;101608.80;2243484;78;50727;-76
2023/07/07 08:42:49;;;;;;;;;;;;;;;25.23;35.86;101613.58;2243693;79;50634;-75
2023/07/07 08:45:58;;;;;;;;;;;;;;;25.23;35.70;101613.08;2226414;78;49950;-77
2023/07/07 08:49:02;;;;;;;;;;;;;;;25.21;35.58;101600.26;2265201;78;51631;-77
2023/07/07 08:52:12;;;;;;;;;;;;;;;25.21;35.61;101607.03;2243860;79;50668;-77
2023/07/07 08:55:31;;;;;;;;;;;;;;;25.19;35.79;101614.52;2177718;81;52594;-76
2023/07/07 08:58:35;;;;;;;;;;;;;;;25.18;35.89;101612.86;2202026;80;50243;-77
2023/07/07 09:01:38;;;;;;;;;;;;;;;25.19;35.97;101607.74;2203381;80;50629;-77
2023/07/07 09:04:46;;;;;;;;;;;;;;;25.18;36.10;101608.80;2203211;80;50695;-77
2023/07/07 09:07:57;;;;;;;;;;;;;;;25.17;36.18;101616.59;2203151;80;22722;-76
2023/07/07 09:11:18;;;;;;;;;;;;;;;25.15;36.24;101609.15;2190330;79;51761;-77
2023/07/07 09:14:20;;;;;;;;;;;;;;;25.12;36.29;101607.68;2207085;78;50361;-77
2023/07/07 09:17:32;;;;;;;;;;;;;;;25.12;36.21;101601.44;2231084;79;51502;-76
2023/07/07 09:20:34;;;;;;;;;;;;;;;25.11;36.16;101606.55;2239218;79;51563;-76
2023/07/07 09:23:37;;;;;;;;;;;;;;;25.10;36.18;101607.56;2239130;79;51524;-77
2023/07/07 09:26:39;;;;;;;;;;;;;;;25.06;36.16;101613.92;2231285;79;51540;-77
2023/07/07 09:29:41;;;;;;;;;;;;;;;25.04;36.10;101607.87;2203467;80;50886;-77
2023/07/07 09:32:43;;;;;;;;;;;;;;;25.03;36.08;101604.86;2206938;79;51205;-76
2023/07/07 09:35:49;;;;;;;;;;;;;;;25.02;36.17;101604.52;2197536;79;49573;-77
2023/07/07 09:39:01;;;;;;;;;;;;;;;24.99;36.24;101605.77;2244572;78;51560;-77
2023/07/07 09:42:10;;;;;;;;;;;;;;;24.98;36.34;101602.75;2173261;79;50189;-76
2023/07/07 09:45:17;;;;;;;;;;;;;;;24.95;36.37;101599.10;2243467;79;51713;-76
2023/07/07 09:48:29;;;;;;;;;;;;;;;24.96;36.49;101591.28;2244660;78;52410;-76
2023/07/07 09:51:36;;;;;;;;;;;;;;;24.96;36.49;101595.87;2243766;76;50664;-76
2023/07/07 09:54:37;;;;;;;;;;;;;;;24.92;36.54;101595.95;2243431;79;51602;-76
2023/07/07 09:57:40;;;;;;;;;;;;;;;24.89;36.60;101597.22;2258837;78;50319;-76
2023/07/07 10:00:41;;;;;;;;;;;;;;;24.90;36.61;101594.81;2259406;78;51728;-75
2023/07/07 10:03:44;;;;;;;;;;;;;;;24.91;36.70;101594.28;2280884;78;51516;-76
2023/07/07 10:06:47;;;;;;;;;;;;;;;24.89;36.74;101586.39;2279915;78;51328;-75
2023/07/07 10:09:49;;;;;;;;;;;;;;;24.88;36.71;101583.34;2273581;78;51465;-76
2023/07/07 10:12:51;;;;;;;;;;;;;;;24.88;36.61;101586.05;2203560;79;52675;-76
2023/07/07 10:15:54;;;;;;;;;;;;;;;24.86;36.61;101580.52;2222922;79;51503;-75
2023/07/07 10:19:04;;;;;;;;;;;;;;;24.86;36.49;101580.00;2265185;77;50296;-76
2023/07/07 10:22:05;;;;;;;;;;;;;;;24.86;36.47;101579.17;2262669;78;51475;-76
2023/07/07 10:25:07;;;;;;;;;;;;;;;24.84;36.64;101579.39;2247107;79;52477;-77
2023/07/07 10:28:10;;;;;;;;;;;;;;;24.89;36.58;101574.70;2243291;79;50423;-76
2023/07/07 10:31:11;;;;;;;;;;;;;;;24.88;33.35;101573.87;2243607;79;50769;-76
2023/07/07 10:34:15;;;;;;;;;;;;;;;24.95;32.71;101573.38;2222513;79;51588;-76
2023/07/07 10:37:18;;;;;;;;;;;;;;;25.03;31.99;101575.07;2220020;78;52380;-78
2023/07/07 10:40:25;;;;;;;;;;;;;;;24.93;32.79;101570.56;2242378;79;51532;-77
2023/07/07 10:43:23;;;;;;;;;;;;;;;24.91;30.95;101570.75;2259993;76;22245;-76
2023/07/07 10:46:25;;;;;;;;;;;;;;;24.92;30.72;101565.67;2265137;77;50477;-76
2023/07/07 10:49:26;;;;;;;;;;;;;;;24.88;30.64;101567.09;2227554;79;51562;-77
2023/07/07 10:52:48;;;;;;;;;;;;;;;24.84;30.15;101564.99;2243596;78;51671;-76
2023/07/07 10:55:57;;;;;;;;;;;;;;;24.83;30.60;101569.58;2243450;79;50681;-76
2023/07/07 10:59:03;;;;;;;;;;;;;;;24.76;30.06;101561.45;2264014;78;50806;-77
2023/07/07 11:02:13;;;;;;;;;;;;;;;24.81;31.22;101561.34;2256003;76;50996;-77
2023/07/07 11:05:16;;;;;;;;;;;;;;;24.76;31.51;101553.83;2243820;79;50717;-77
2023/07/07 11:08:26;;;;;;;;;;;;;;;24.77;30.60;101559.57;2244335;78;51611;-77
2023/07/07 11:11:32;;;;;;;;;;;;;;;24.74;30.36;101552.69;2243827;78;50692;-77
2023/07/07 11:14:38;;;;;;;;;;;;;;;24.88;30.58;101560.33;2253278;78;51640;-77
2023/07/07 11:17:45;;;;;;;;;;;;;;;24.90;30.86;101557.44;2267137;77;51512;-77
2023/07/07 11:20:51;;;;;;;;;;;;;;;24.95;30.89;101553.08;2243647;79;51471;-77
2023/07/07 11:24:10;;;;;;;;;;;;;;;24.89;30.55;101543.06;2242436;79;50384;-77
2023/07/07 11:27:31;;;;;;;;;;;;;;;24.96;30.55;101543.07;2222777;79;51414;-78
2023/07/07 11:30:50;;;;;;;;;;;;;;;24.92;30.73;101541.30;2243782;79;50376;-76
2023/07/07 11:33:59;;;;;;;;;;;;;;;24.89;30.59;101552.55;2243482;78;51427;-77
2023/07/07 11:37:02;;;;;;;;;;;;;;;24.86;30.47;101533.98;2257616;78;51433;-76
2023/07/07 11:40:09;;;;;;;;;;;;;;;24.83;30.49;101543.86;2241987;78;50274;-77
2023/07/07 11:43:15;;;;;;;;;;;;;;;24.89;30.35;101540.36;2280418;78;50261;-77
2023/07/07 11:46:35;;;;;;;;;;;;;;;24.75;30.94;101537.28;2265245;76;50766;-76
2023/07/07 11:49:38;;;;;;;;;;;;;;;24.85;30.80;101542.31;2249826;78;50786;-77
2023/07/07 11:52:58;;;;;;;;;;;;;;;24.80;30.74;101545.63;2222746;79;51293;-78
2023/07/07 11:56:20;;;;;;;;;;;;;;;24.75;31.20;101531.87;2247493;78;50446;-77
2023/07/07 11:59:35;;;;;;;;;;;;;;;24.90;30.79;101529.01;2280555;78;50363;-78
2023/07/07 12:02:38;;;;;;;;;;;;;;;24.74;30.99;101523.45;2243893;78;52273;-78
2023/07/07 12:05:40;;;;;;;;;;;;;;;24.90;31.24;101531.19;2227446;78;50933;-77
2023/07/07 12:08:56;;;;;;;;;;;;;;;24.73;31.03;101523.94;2280937;78;50729;-77
2023/07/07 12:11:59;;;;;;;;;;;;;;;24.78;31.03;101523.34;2220630;78;52656;-78
2023/07/07 12:15:12;;;;;;;;;;;;;;;24.99;31.07;101521.82;2280305;76;50446;-76
2023/07/07 12:18:15;;;;;;;;;;;;;;;24.92;30.54;101518.29;2216039;78;51286;-77
2023/07/07 12:21:18;;;;;;;;;;;;;;;25.01;30.62;101521.63;2258285;78;52686;-76
2023/07/07 12:24:24;;;;;;;;;;;;;;;24.95;30.73;101517.87;2272096;78;50837;-78
2023/07/07 12:27:27;;;;;;;;;;;;;;;24.97;30.42;101521.22;2278824;78;50685;-76
2023/07/07 12:30:30;;;;;;;;;;;;;;;25.03;30.32;101518.73;2278817;78;52025;-77
2023/07/07 12:33:34;;;;;;;;;;;;;;;25.02;30.50;101514.34;2281167;78;50303;-77
2023/07/07 12:36:35;;;;;;;;;;;;;;;25.04;30.58;101516.33;2258275;78;50519;-77
2023/07/07 12:39:37;;;;;;;;;;;;;;;25.12;30.82;101525.61;2261146;76;50872;-78
2023/07/07 12:42:39;;;;;;;;;;;;;;;25.05;30.00;101519.33;2223116;78;52390;-76
2023/07/07 12:45:42;;;;;;;;;;;;;;;25.04;29.98;101516.33;2247602;76;50700;-76
2023/07/07 12:48:47;;;;;;;;;;;;;;;25.10;30.22;101515.49;2261610;78;51634;-76
2023/07/07 12:51:50;;;;;;;;;;;;;;;25.05;30.33;101519.33;2243487;79;50477;-76
2023/07/07 12:54:52;;;;;;;;;;;;;;;25.08;30.12;101508.12;2243764;79;50692;-76
2023/07/07 12:57:58;;;;;;;;;;;;;;;25.03;30.09;101503.84;2251113;78;52146;-77
2023/07/07 13:01:05;;;;;;;;;;;;;;;25.06;30.34;101508.31;2255749;76;50807;-75
2023/07/07 13:04:08;;;;;;;;;;;;;;;24.99;29.87;101512.88;2225871;78;50791;-76
2023/07/07 13:07:11;;;;;;;;;;;;;;;24.99;29.75;101510.99;2262677;78;50674;-76
2023/07/07 13:10:30;;;;;;;;;;;;;;;25.14;29.95;101506.75;2279592;78;50326;-75
2023/07/07 13:13:33;;;;;;;;;;;;;;;25.08;29.95;101507.59;2280579;77;50709;-76
2023/07/07 13:16:34;;;;;;;;;;;;;;;25.04;29.89;101504.14;2275621;76;50709;-77
2023/07/07 13:19:36;;;;;;;;;;;;;;;25.02;29.95;101496.73;2268440;76;51478;-77
2023/07/07 13:22:38;;;;;;;;;;;;;;;24.97;29.54;101495.50;2243642;79;50641;-76
2023/07/07 13:25:40;;;;;;;;;;;;;;;25.07;29.97;101493.72;2243951;79;50295;-77
2023/07/07 13:28:41;;;;;;;;;;;;;;;25.06;30.13;101496.66;2237398;79;51500;-77
2023/07/07 13:31:43;;;;;;;;;;;;;;;25.08;29.74;101489.16;2222822;79;51663;-77
2023/07/07 13:34:45;;;;;;;;;;;;;;;25.17;30.30;101492.00;2222781;79;49983;-77
2023/07/07 13:37:46;;;;;;;;;;;;;;;25.25;30.59;101498.56;2225348;78;50269;-76
2023/07/07 13:40:48;;;;;;;;;;;;;;;25.26;30.24;101499.42;2243957;79;50600;-77
2023/07/07 13:43:50;;;;;;;;;;;;;;;25.26;30.12;101494.83;2222767;79;51300;-77
2023/07/07 13:46:53;;;;;;;;;;;;;;;25.20;30.51;101497.00;2239787;78;53638;-77
2023/07/07 13:50:01;;;;;;;;;;;;;;;25.14;30.80;101501.86;2274413;78;51545;-76
2023/07/07 13:52:59;;;;;;;;;;;;;;;25.10;31.02;101499.24;2280983;78;23127;-77
2023/07/07 13:56:02;;;;;;;;;;;;;;;25.07;31.32;101495.59;2226070;79;50140;-77
2023/07/07 13:59:04;;;;;;;;;;;;;;;25.04;31.55;101496.84;2270239;78;50774;-77
2023/07/07 14:02:07;;;;;;;;;;;;;;;25.04;31.77;101494.66;2252320;78;51364;-77
2023/07/07 14:05:09;;;;;;;;;;;;;;;25.03;31.96;101495.19;2266020;78;51509;-77
2023/07/07 14:08:18;;;;;;;;;;;;;;;25.02;32.11;101482.67;2246215;79;52216;-77
2023/07/07 14:11:20;;;;;;;;;;;;;;;25.05;32.30;101476.01;2224790;79;51497;-77
2023/07/07 14:14:22;;;;;;;;;;;;;;;25.02;32.42;101474.55;2256524;78;50016;-77
2023/07/07 14:17:25;;;;;;;;;;;;;;;25.00;32.61;101480.71;2268782;78;51564;-77
2023/07/07 14:20:27;;;;;;;;;;;;;;;25.01;32.73;101469.36;2223048;79;52391;-77
2023/07/07 14:23:29;;;;;;;;;;;;;;;25.00;32.88;101472.59;2244670;79;51592;-77
2023/07/07 14:26:31;;;;;;;;;;;;;;;25.02;32.95;101478.61;2266478;78;50720;-77
2023/07/07 14:29:34;;;;;;;;;;;;;;;25.03;33.04;101469.99;2281428;78;51486;-77
2023/07/07 14:32:40;;;;;;;;;;;;;;;25.04;33.18;101464.88;2258798;78;51123;-77
2023/07/07 14:35:42;;;;;;;;;;;;;;;25.03;33.27;101461.34;2281044;78;51522;-77
2023/07/07 14:38:45;;;;;;;;;;;;;;;25.03;33.39;101453.22;2261073;76;51490;-77
2023/07/07 14:41:48;;;;;;;;;;;;;;;25.06;33.50;101451.97;2222930;79;52341;-76
2023/07/07 14:44:50;;;;;;;;;;;;;;;25.05;33.57;101444.38;2199814;78;51757;-77
2023/07/07 14:47:52;;;;;;;;;;;;;;;25.08;33.65;101451.25;2260356;78;51470;-77
2023/07/07 14:50:54;;;;;;;;;;;;;;;25.08;33.76;101448.54;2279211;78;50709;-77
2023/07/07 14:53:59;;;;;;;;;;;;;;;25.08;33.83;101449.89;2279336;78;52297;-77
2023/07/07 14:57:08;;;;;;;;;;;;;;;25.08;33.91;101453.43;2236842;79;51258;-77
2023/07/07 15:00:27;;;;;;;;;;;;;;;25.08;34.01;101444.48;2278036;78;50476;-77
2023/07/07 15:03:29;;;;;;;;;;;;;;;25.12;34.07;101451.13;2259684;78;50722;-77
2023/07/07 15:06:35;;;;;;;;;;;;;;;25.11;34.15;101445.41;2264054;78;50437;-77
2023/07/07 15:09:37;;;;;;;;;;;;;;;25.11;34.24;101444.89;2222904;79;51669;-77
2023/07/07 15:12:38;;;;;;;;;;;;;;;25.12;34.33;101448.42;2244021;79;51407;-77
2023/07/07 15:15:40;;;;;;;;;;;;;;;25.13;34.37;101440.63;2252806;78;51406;-77
2023/07/07 15:18:41;;;;;;;;;;;;;;;25.13;34.43;101439.28;2266993;78;52319;-77
2023/07/07 15:21:43;;;;;;;;;;;;;;;25.13;34.53;101437.92;2234872;78;51094;-77
2023/07/07 15:24:45;;;;;;;;;;;;;;;25.14;34.58;101434.16;2281167;78;51443;-77
2023/07/07 15:27:46;;;;;;;;;;;;;;;25.15;34.67;101429.05;2249025;78;52347;-77
2023/07/07 15:30:48;;;;;;;;;;;;;;;25.14;34.75;101421.45;2243822;79;50222;-77
2023/07/07 15:33:49;;;;;;;;;;;;;;;25.15;34.81;101435.81;2222755;79;51107;-77
2023/07/07 15:36:51;;;;;;;;;;;;;;;25.17;34.84;101428.35;2222624;79;50355;-76
2023/07/07 15:39:52;;;;;;;;;;;;;;;25.17;34.91;101422.94;2199207;79;51855;-78
2023/07/07 15:42:54;;;;;;;;;;;;;;;25.18;34.95;101416.50;2223054;79;53298;-76